Sinegorsk — YJRC5 — position and weather

sailwx.info

Track history (hours):
 
Tides and Currents Weather Stations Pressure Air Temp Water Temp Dewpoint Dewpoint Depression Visibility Wind Speed Wind Dir Waves Ship Positions

Sinegorsk

Last reported at 2014-Sep-14 12:24 UTC. Time now 2014-Sep-18 23:48 UTC.
Position N 59°35' E 021°05'.

Length 133 m; draft 6.2 m.

Type: Cargo ship. MMSI: 576292000.

Date/timePositionNaut miles runAvg speedWind from/ knotsBaromVisibWave heightAir tempDewpointWater temp
2014-Sep-14 12:24N 59°35' E 021°05'8 9.4
2014-Sep-14 11:33N 59°36' E 021°20'10 9.6
2014-Sep-14 10:28N 59°36' E 021°41'9 9.7
2014-Sep-14 09:31N 59°36' E 021°59'20 9.5
2014-Sep-14 07:27N 59°37' E 022°38'8 9.4
2014-Sep-14 06:33N 59°37' E 022°55'10 9.6
2014-Sep-14 05:33N 59°37' E 023°13'9 9.5
2014-Sep-14 04:33N 59°40' E 023°32'9 9.4
2014-Sep-14 03:33N 59°42' E 023°50'10 9.6
2014-Sep-14 02:33N 59°45' E 024°08'10 9.9
2014-Sep-14 01:33N 59°47' E 024°27'51 9.7
2014-Sep-13 20:16N 59°58' E 026°07'7 9.6
2014-Sep-13 19:33N 59°60' E 026°20'10 9.6
2014-Sep-13 18:33N 60°01' E 026°39'10 9.5
2014-Sep-13 17:33N 59°60' E 026°58'12 9.2
2014-Sep-13 16:12N 60°05' E 027°20'  
2014-Sep-09 19:31N 60°07' E 027°36'1010.4
2014-Sep-09 18:32N 60°02' E 027°19'1010.2
2014-Sep-09 17:33N 59°58' E 027°00'1010.4
2014-Sep-09 16:33N 59°59' E 026°40'1110.7
2014-Sep-09 15:32N 59°56' E 026°19'1410.7
2014-Sep-09 14:16N 59°52' E 025°53'2910.6
2014-Sep-09 11:33N 59°46' E 024°57'1110.6
2014-Sep-09 10:33N 59°44' E 024°36'1010.3
2014-Sep-09 09:33N 59°42' E 024°16'1010.1
2014-Sep-09 08:32N 59°38' E 023°57'1010.3
2014-Sep-09 07:33N 59°35' E 023°38'1110.3
2014-Sep-09 06:32N 59°32' E 023°18'21310.7
2014-Sep-08 10:29N 56°55' E 018°43'1010.6
2014-Sep-08 09:31N 56°48' E 018°29'2110.8
2014-Sep-08 07:33N 56°35' E 017°59'1110.9
2014-Sep-08 06:32N 56°28' E 017°43'1110.8
2014-Sep-08 05:33N 56°21' E 017°28'1110.7
2014-Sep-08 04:33N 56°15' E 017°13'1110.7
2014-Sep-08 03:33N 56°08' E 016°57'1110.7
2014-Sep-08 02:32N 56°02' E 016°42'1110.7
2014-Sep-08 01:33N 55°56' E 016°26'1110.7
2014-Sep-08 00:33N 55°51' E 016°09'1010.5
2014-Sep-07 23:33N 55°46' E 015°53'1010.3
2014-Sep-07 22:34N 55°41' E 015°37'1010.2
2014-Sep-07 21:34N 55°36' E 015°21'1010.2
2014-Sep-07 20:33N 55°32' E 015°05'1110.6
2014-Sep-07 19:33N 55°27' E 014°48'1010.4
2014-Sep-07 18:33N 55°20' E 014°34'1010.5
2014-Sep-07 17:33N 55°12' E 014°22'10 9.9
2014-Sep-07 16:33N 55°11' E 014°05'1010.0
2014-Sep-07 15:33N 55°11' E 013°47'10 9.7
2014-Sep-07 14:33N 55°12' E 013°30'10 9.6
2014-Sep-07 13:33N 55°13' E 013°13'1010.0
2014-Sep-07 12:33N 55°15' E 012°56'10 9.9
2014-Sep-07 11:33N 55°18' E 012°40'10 9.7
2014-Sep-07 10:33N 55°28' E 012°41'9 9.1
2014-Sep-07 09:33N 55°37' E 012°42'9 9.0
2014-Sep-07 08:33N 55°46' E 012°41'9 9.4
2014-Sep-07 07:33N 55°55' E 012°38'9 8.7
2014-Sep-07 06:33N 56°04' E 012°37'8 8.3
2014-Sep-07 05:33N 56°09' E 012°26'10 9.7
2014-Sep-07 04:33N 56°14' E 012°12'9 9.0
2014-Sep-07 03:33N 56°21' E 012°01'9 8.5
2014-Sep-07 02:33N 56°30' E 011°58'9 8.7
2014-Sep-07 01:33N 56°38' E 011°55'9 8.7
2014-Sep-07 00:33N 56°47' E 011°51'9 8.8
2014-Sep-06 23:32N 56°55' E 011°45'9 9.0
2014-Sep-06 22:32N 57°04' E 011°40'9 8.9
2014-Sep-06 21:33N 57°12' E 011°34'9 9.0
2014-Sep-06 20:33N 57°20' E 011°29'9 9.5
2014-Sep-06 19:33N 57°29' E 011°21'10 9.8
2014-Sep-06 18:33N 57°36' E 011°08'1010.0
2014-Sep-06 17:33N 57°42' E 010°54'9 9.4
2014-Sep-06 16:33N 57°47' E 010°39'9 9.5
2014-Sep-06 15:33N 57°45' E 010°21'10 9.5
2014-Sep-06 14:33N 57°41' E 010°05'16910.4
2014-Sep-05 22:17N 55°37' E 006°37'11310.5
2014-Sep-05 11:33N 53°59' E 004°57'1110.4
2014-Sep-05 10:32N 53°49' E 004°54'1010.2
2014-Sep-05 09:32N 53°39' E 004°50'10 9.7
2014-Sep-05 08:33N 53°30' E 004°45'11 9.4
2014-Sep-05 07:20N 53°19' E 004°38'7 9.4
2014-Sep-05 06:33N 53°12' E 004°34'10 9.5
2014-Sep-05 05:32N 53°04' E 004°26'9 9.6
2014-Sep-05 04:33N 52°56' E 004°19'10 9.8
2014-Sep-05 03:33N 52°47' E 004°11'10 9.8
2014-Sep-05 02:33N 52°39' E 004°02'1010.2
2014-Sep-05 01:33N 52°30' E 003°54'1111.1
2014-Sep-05 00:33N 52°19' E 003°51'1111.0
2014-Sep-04 23:33N 52°08' E 003°55'9 9.0
2014-Sep-04 22:33N 51°60' E 004°02'4 3.9
2014-Sep-04 21:32N 51°56' E 004°03'0 0.0
2014-Sep-04 20:32N 51°56' E 004°03'0 0.0
2014-Sep-04 19:33N 51°56' E 004°03'0 0.0
2014-Sep-04 18:31N 51°56' E 004°03'0 0.0
2014-Sep-04 17:31N 51°56' E 004°03'0 0.0
2014-Sep-04 16:32N 51°56' E 004°03'0 0.0
2014-Sep-04 15:31N 51°56' E 004°03'0 0.0
2014-Sep-04 14:32N 51°56' E 004°03'0 0.0
2014-Sep-04 13:33N 51°56' E 004°03'0 0.0
2014-Sep-04 12:27N 51°56' E 004°03'  
Track history (hours):
 
Tides and Currents Weather Stations Pressure Air Temp Water Temp Dewpoint Dewpoint Depression Visibility Wind Speed Wind Dir Waves Ship Positions

Sinegorsk

Last reported at 2014-Sep-14 12:24 UTC. Time now 2014-Sep-18 23:48 UTC.
Position N 59°35' E 021°05'.

Length 133 m; draft 6.2 m.

Type: Cargo ship. MMSI: 576292000.

Date/timePositionNaut miles runAvg speedWind from/ knotsBaromVisibWave heightAir tempDewpointWater temp
2014-Sep-14 12:24N 59°35' E 021°05'8 9.4
2014-Sep-14 11:33N 59°36' E 021°20'10 9.6
2014-Sep-14 10:28N 59°36' E 021°41'9 9.7
2014-Sep-14 09:31N 59°36' E 021°59'20 9.5
2014-Sep-14 07:27N 59°37' E 022°38'8 9.4
2014-Sep-14 06:33N 59°37' E 022°55'10 9.6
2014-Sep-14 05:33N 59°37' E 023°13'9 9.5
2014-Sep-14 04:33N 59°40' E 023°32'9 9.4
2014-Sep-14 03:33N 59°42' E 023°50'10 9.6
2014-Sep-14 02:33N 59°45' E 024°08'10 9.9
2014-Sep-14 01:33N 59°47' E 024°27'51 9.7
2014-Sep-13 20:16N 59°58' E 026°07'7 9.6
2014-Sep-13 19:33N 59°60' E 026°20'10 9.6
2014-Sep-13 18:33N 60°01' E 026°39'10 9.5
2014-Sep-13 17:33N 59°60' E 026°58'12 9.2
2014-Sep-13 16:12N 60°05' E 027°20'  
2014-Sep-09 19:31N 60°07' E 027°36'1010.4
2014-Sep-09 18:32N 60°02' E 027°19'1010.2
2014-Sep-09 17:33N 59°58' E 027°00'1010.4
2014-Sep-09 16:33N 59°59' E 026°40'1110.7
2014-Sep-09 15:32N 59°56' E 026°19'1410.7
2014-Sep-09 14:16N 59°52' E 025°53'2910.6
2014-Sep-09 11:33N 59°46' E 024°57'1110.6
2014-Sep-09 10:33N 59°44' E 024°36'1010.3
2014-Sep-09 09:33N 59°42' E 024°16'1010.1
2014-Sep-09 08:32N 59°38' E 023°57'1010.3
2014-Sep-09 07:33N 59°35' E 023°38'1110.3
2014-Sep-09 06:32N 59°32' E 023°18'21310.7
2014-Sep-08 10:29N 56°55' E 018°43'1010.6
2014-Sep-08 09:31N 56°48' E 018°29'2110.8
2014-Sep-08 07:33N 56°35' E 017°59'1110.9
2014-Sep-08 06:32N 56°28' E 017°43'1110.8
2014-Sep-08 05:33N 56°21' E 017°28'1110.7
2014-Sep-08 04:33N 56°15' E 017°13'1110.7
2014-Sep-08 03:33N 56°08' E 016°57'1110.7
2014-Sep-08 02:32N 56°02' E 016°42'1110.7
2014-Sep-08 01:33N 55°56' E 016°26'1110.7
2014-Sep-08 00:33N 55°51' E 016°09'1010.5
2014-Sep-07 23:33N 55°46' E 015°53'1010.3
2014-Sep-07 22:34N 55°41' E 015°37'1010.2
2014-Sep-07 21:34N 55°36' E 015°21'1010.2
2014-Sep-07 20:33N 55°32' E 015°05'1110.6
2014-Sep-07 19:33N 55°27' E 014°48'1010.4
2014-Sep-07 18:33N 55°20' E 014°34'1010.5
2014-Sep-07 17:33N 55°12' E 014°22'10 9.9
2014-Sep-07 16:33N 55°11' E 014°05'1010.0
2014-Sep-07 15:33N 55°11' E 013°47'10 9.7
2014-Sep-07 14:33N 55°12' E 013°30'10 9.6
2014-Sep-07 13:33N 55°13' E 013°13'1010.0
2014-Sep-07 12:33N 55°15' E 012°56'10 9.9
2014-Sep-07 11:33N 55°18' E 012°40'10 9.7
2014-Sep-07 10:33N 55°28' E 012°41'9 9.1
2014-Sep-07 09:33N 55°37' E 012°42'9 9.0
2014-Sep-07 08:33N 55°46' E 012°41'9 9.4
2014-Sep-07 07:33N 55°55' E 012°38'9 8.7
2014-Sep-07 06:33N 56°04' E 012°37'8 8.3
2014-Sep-07 05:33N 56°09' E 012°26'10 9.7
2014-Sep-07 04:33N 56°14' E 012°12'9 9.0
2014-Sep-07 03:33N 56°21' E 012°01'9 8.5
2014-Sep-07 02:33N 56°30' E 011°58'9 8.7
2014-Sep-07 01:33N 56°38' E 011°55'9 8.7
2014-Sep-07 00:33N 56°47' E 011°51'9 8.8
2014-Sep-06 23:32N 56°55' E 011°45'9 9.0
2014-Sep-06 22:32N 57°04' E 011°40'9 8.9
2014-Sep-06 21:33N 57°12' E 011°34'9 9.0
2014-Sep-06 20:33N 57°20' E 011°29'9 9.5
2014-Sep-06 19:33N 57°29' E 011°21'10 9.8
2014-Sep-06 18:33N 57°36' E 011°08'1010.0
2014-Sep-06 17:33N 57°42' E 010°54'9 9.4
2014-Sep-06 16:33N 57°47' E 010°39'9 9.5
2014-Sep-06 15:33N 57°45' E 010°21'10 9.5
2014-Sep-06 14:33N 57°41' E 010°05'16910.4
2014-Sep-05 22:17N 55°37' E 006°37'11310.5
2014-Sep-05 11:33N 53°59' E 004°57'1110.4
2014-Sep-05 10:32N 53°49' E 004°54'1010.2
2014-Sep-05 09:32N 53°39' E 004°50'10 9.7
2014-Sep-05 08:33N 53°30' E 004°45'11 9.4
2014-Sep-05 07:20N 53°19' E 004°38'7 9.4
2014-Sep-05 06:33N 53°12' E 004°34'10 9.5
2014-Sep-05 05:32N 53°04' E 004°26'9 9.6
2014-Sep-05 04:33N 52°56' E 004°19'10 9.8
2014-Sep-05 03:33N 52°47' E 004°11'10 9.8
2014-Sep-05 02:33N 52°39' E 004°02'1010.2
2014-Sep-05 01:33N 52°30' E 003°54'1111.1
2014-Sep-05 00:33N 52°19' E 003°51'1111.0
2014-Sep-04 23:33N 52°08' E 003°55'9 9.0
2014-Sep-04 22:33N 51°60' E 004°02'4 3.9
2014-Sep-04 21:32N 51°56' E 004°03'0 0.0
2014-Sep-04 20:32N 51°56' E 004°03'0 0.0
2014-Sep-04 19:33N 51°56' E 004°03'0 0.0
2014-Sep-04 18:31N 51°56' E 004°03'0 0.0
2014-Sep-04 17:31N 51°56' E 004°03'0 0.0
2014-Sep-04 16:32N 51°56' E 004°03'0 0.0
2014-Sep-04 15:31N 51°56' E 004°03'0 0.0
2014-Sep-04 14:32N 51°56' E 004°03'0 0.0
2014-Sep-04 13:33N 51°56' E 004°03'0 0.0
2014-Sep-04 12:27N 51°56' E 004°03'  

Dump ship's entire track history